Time;durP1;ratioP1;P1;durP2;ratioP2;P2;SDS_P1;SDS_P2;PMS_P1;PMS_P2;Temp;Humidity;BMP_temperature;BMP_pressure;BME280_temperature;BME280_humidity;BME280_pressure;Samples;Min_cycle;Max_cycle;Signal;HPM_P1;HPM_P2
2023/07/30 00:01:34;;;;;;;3.60;3.05;;;;;;;19.27;100.00;99776.09;5061853;28;20064;-80
2023/07/30 00:04:02;;;;;;;2.97;2.65;;;;;;;19.30;100.00;99778.47;5044029;28;20050;-78
2023/07/30 00:06:33;;;;;;;;;;;;;;;19.38;100.00;99781.28;5090642;28;20063;-78
2023/07/30 00:09:03;;;;;;;3.88;3.00;;;;;;;19.44;100.00;99782.56;5068847;28;19931;-79
2023/07/30 00:11:34;;;;;;;3.63;2.80;;;;;;;19.49;100.00;99773.13;5075067;28;20083;-79
2023/07/30 00:14:03;;;;;;;4.72;2.97;;;;;;;19.38;100.00;99749.06;5059103;28;20142;-79
2023/07/30 00:16:31;;;;;;;5.82;2.92;;;;;;;19.45;100.00;99774.38;5067448;28;20045;-80
2023/07/30 00:18:59;;;;;;;5.63;3.60;;;;;;;19.57;100.00;99788.50;5064478;28;20048;-79
2023/07/30 00:21:27;;;;;;;4.60;2.83;;;;;;;19.30;100.00;99759.69;5069117;28;20059;-79
2023/07/30 00:23:55;;;;;;;4.80;3.30;;;;;;;19.33;100.00;99780.88;5049334;28;20076;-79
2023/07/30 00:26:26;;;;;;;3.40;2.88;;;;;;;19.36;100.00;99785.94;5063685;28;20051;-79
2023/07/30 00:28:55;;;;;;;4.85;2.88;;;;;;;19.35;100.00;99791.50;5042225;28;20041;-78
2023/07/30 00:31:23;;;;;;;3.08;2.72;;;;;;;19.19;100.00;99773.28;5052279;28;20075;-80
2023/07/30 00:33:52;;;;;;;4.38;3.00;;;;;;;19.17;100.00;99786.84;5059128;28;20057;-80
2023/07/30 00:36:20;;;;;;;5.20;3.00;;;;;;;19.22;100.00;99806.03;5049589;28;20053;-79
2023/07/30 00:38:50;;;;;;;4.70;2.70;;;;;;;19.15;100.00;99804.91;5056986;28;20049;-80
2023/07/30 00:41:19;;;;;;;3.75;3.08;;;;;;;19.15;100.00;99804.06;5045897;28;20532;-78
2023/07/30 00:43:47;;;;;;;3.47;2.50;;;;;;;19.16;100.00;99803.06;5050169;28;20049;-79
2023/07/30 00:46:18;;;;;;;4.70;2.83;;;;;;;19.17;100.00;99808.31;5054315;28;20052;-80
2023/07/30 00:48:47;;;;;;;;;;;;;;;19.26;100.00;99810.13;5059387;28;20059;-80
2023/07/30 00:51:17;;;;;;;3.80;2.45;;;;;;;19.19;100.00;99784.84;5027736;28;20371;-79
2023/07/30 00:53:48;;;;;;;3.55;2.25;;;;;;;19.34;100.00;99809.44;5045697;28;20449;-80
2023/07/30 00:56:17;;;;;;;2.22;2.00;;;;;;;19.35;100.00;99815.66;5047183;28;20049;-79
2023/07/30 00:58:49;;;;;;;3.42;2.00;;;;;;;19.40;100.00;99816.06;5054543;28;20144;-79
2023/07/30 01:01:19;;;;;;;3.58;2.17;;;;;;;19.37;100.00;99819.88;5051283;28;20055;-79
2023/07/30 01:03:49;;;;;;;3.38;2.20;;;;;;;19.27;100.00;99821.72;5050231;28;20099;-81
2023/07/30 01:06:18;;;;;;;;;;;;;;;19.26;100.00;99830.75;5045879;28;20059;-78
2023/07/30 01:08:46;;;;;;;2.70;2.17;;;;;;;19.25;100.00;99827.22;5048948;28;19925;-79
2023/07/30 01:11:15;;;;;;;4.07;2.30;;;;;;;19.25;100.00;99827.22;5016029;28;20137;-79
2023/07/30 01:13:44;;;;;;;4.10;2.60;;;;;;;19.27;100.00;99819.03;5047129;28;20429;-79
2023/07/30 01:16:15;;;;;;;5.28;2.80;;;;;;;19.36;100.00;99828.91;5048645;28;20045;-79
2023/07/30 01:18:46;;;;;;;3.47;3.05;;;;;;;19.38;100.00;99839.50;5060040;28;20049;-79
2023/07/30 01:21:16;;;;;;;4.05;2.80;;;;;;;19.34;100.00;99825.53;5058494;28;20092;-79
2023/07/30 01:23:44;;;;;;;3.25;2.85;;;;;;;19.34;100.00;99808.59;5048660;28;20359;-79
2023/07/30 01:26:18;;;;;;;3.20;2.72;;;;;;;19.52;100.00;99837.28;5052802;28;20302;-78
2023/07/30 01:28:50;;;;;;;7.15;3.30;;;;;;;19.51;100.00;99838.28;5054761;28;20049;-79
2023/07/30 01:31:18;;;;;;;3.00;2.50;;;;;;;19.57;100.00;99834.16;5065992;28;20110;-79
2023/07/30 01:33:53;;;;;;;3.08;2.45;;;;;;;19.53;100.00;99836.28;5049542;28;20072;-78
2023/07/30 01:36:24;;;;;;;3.15;2.70;;;;;;;19.41;100.00;99847.28;5029329;28;20048;-78
2023/07/30 01:38:53;;;;;;;3.00;2.70;;;;;;;19.37;100.00;99853.91;5065011;28;20049;-78
2023/07/30 01:41:21;;;;;;;3.30;2.50;;;;;;;19.28;100.00;99856.47;5034386;28;20056;-79
2023/07/30 01:43:52;;;;;;;4.70;2.67;;;;;;;19.20;100.00;99850.94;5030440;28;20049;-80
2023/07/30 01:46:21;;;;;;;4.60;2.90;;;;;;;19.26;100.00;99860.28;5036618;28;20053;-79
2023/07/30 01:48:49;;;;;;;6.40;2.58;;;;;;;19.20;100.00;99859.00;5041618;28;20090;-79
2023/07/30 01:51:17;;;;;;;3.38;2.38;;;;;;;19.24;100.00;99856.88;5032882;28;20049;-79
2023/07/30 01:53:48;;;;;;;3.08;2.40;;;;;;;19.31;100.00;99863.41;5049617;28;20533;-80
2023/07/30 01:56:18;;;;;;;4.10;2.30;;;;;;;19.46;100.00;99870.06;5041894;28;20048;-79
2023/07/30 01:58:46;;;;;;;2.40;2.20;;;;;;;19.52;100.00;99874.88;5060194;28;20501;-79
2023/07/30 02:01:14;;;;;;;3.97;2.10;;;;;;;19.58;100.00;99882.38;5052287;28;20449;-79
2023/07/30 02:03:44;;;;;;;2.45;2.10;;;;;;;19.60;100.00;99875.03;5051964;28;20111;-78
2023/07/30 02:06:13;;;;;;;3.83;2.42;;;;;;;19.71;100.00;99882.06;5035801;28;20049;-79
2023/07/30 02:08:41;;;;;;;3.47;2.22;;;;;;;19.70;100.00;99858.03;5040335;28;20045;-79
2023/07/30 02:11:10;;;;;;;2.90;2.10;;;;;;;19.77;100.00;99859.19;5037328;28;20052;-79
2023/07/30 02:13:40;;;;;;;2.83;2.38;;;;;;;19.87;100.00;99876.97;5038041;28;20049;-79
2023/07/30 02:16:10;;;;;;;3.00;2.25;;;;;;;19.88;100.00;99881.34;5051978;28;20049;-79
2023/07/30 02:18:38;;;;;;;3.85;2.55;;;;;;;19.85;100.00;99878.09;5056572;28;20041;-77
2023/07/30 02:21:06;;;;;;;3.17;2.25;;;;;;;19.83;100.00;99878.25;5046359;28;20052;-78
2023/07/30 02:23:34;;;;;;;2.65;2.17;;;;;;;19.82;100.00;99883.78;5046197;28;20056;-80
2023/07/30 02:26:03;;;;;;;3.10;2.10;;;;;;;19.81;100.00;99885.63;5051092;28;20382;-78
2023/07/30 02:28:33;;;;;;;2.42;2.20;;;;;;;19.81;100.00;99882.94;5035799;28;20481;-78
2023/07/30 02:31:01;;;;;;;3.95;2.45;;;;;;;19.83;100.00;99891.66;5054495;28;20057;-77
2023/07/30 02:33:31;;;;;;;6.68;2.60;;;;;;;19.75;100.00;99885.34;5035997;28;20071;-78
2023/07/30 02:35:59;;;;;;;4.05;2.75;;;;;;;19.59;100.00;99893.97;5032183;28;20069;-78
2023/07/30 02:38:27;;;;;;;3.05;2.40;;;;;;;19.50;100.00;99901.03;5057687;28;20056;-78
2023/07/30 02:40:55;;;;;;;2.33;2.10;;;;;;;19.47;100.00;99890.53;5041290;28;20049;-77
2023/07/30 02:43:23;;;;;;;3.40;2.20;;;;;;;19.47;100.00;99908.50;5033546;28;20048;-78
2023/07/30 02:45:52;;;;;;;3.47;2.38;;;;;;;19.28;100.00;99891.38;5037488;28;20049;-78
2023/07/30 02:48:23;;;;;;;6.80;2.50;;;;;;;19.41;100.00;99906.34;5043535;28;20135;-77
2023/07/30 02:50:51;;;;;;;3.45;2.50;;;;;;;19.43;100.00;99905.22;5052206;28;20048;-78
2023/07/30 02:53:19;;;;;;;3.05;2.53;;;;;;;19.45;100.00;99919.38;5052287;28;20055;-78
2023/07/30 02:55:48;;;;;;;2.70;2.30;;;;;;;19.42;100.00;99919.66;5052072;28;20037;-78
2023/07/30 02:58:17;;;;;;;3.20;2.10;;;;;;;19.33;100.00;99908.91;5056020;28;20041;-79
2023/07/30 03:00:46;;;;;;;3.13;2.15;;;;;;;19.36;100.00;99917.50;5057579;28;20045;-78
2023/07/30 03:03:17;;;;;;;2.55;1.98;;;;;;;19.42;100.00;99925.00;5053469;28;20044;-78
2023/07/30 03:05:46;;;;;;;2.50;2.20;;;;;;;19.40;100.00;99912.72;5047723;28;20418;-79
2023/07/30 03:08:14;;;;;;;2.83;2.08;;;;;;;19.42;100.00;99921.47;5056518;28;20127;-78
2023/07/30 03:10:42;;;;;;;2.33;1.90;;;;;;;19.46;100.00;99929.13;5056566;28;20044;-76
2023/07/30 03:13:11;;;;;;;2.05;1.83;;;;;;;19.48;100.00;99926.31;5057360;28;20060;-77
2023/07/30 03:15:40;;;;;;;2.20;2.00;;;;;;;19.50;100.00;99908.25;5029759;28;20046;-77
2023/07/30 03:18:09;;;;;;;2.05;1.90;;;;;;;19.57;100.00;99929.03;5053996;28;20111;-78
2023/07/30 03:20:39;;;;;;;2.30;2.10;;;;;;;19.59;100.00;99926.19;5038166;28;20045;-77
2023/07/30 03:23:07;;;;;;;5.03;2.43;;;;;;;19.60;100.00;99922.53;5040617;28;20090;-78
2023/07/30 03:25:36;;;;;;;3.70;2.20;;;;;;;19.62;100.00;99920.53;5036406;28;20056;-78
2023/07/30 03:28:04;;;;;;;3.42;1.88;;;;;;;19.51;100.00;99908.13;5069354;28;20110;-78
2023/07/30 03:30:35;;;;;;;3.13;1.80;;;;;;;19.53;100.00;99927.59;5045024;28;20049;-78
2023/07/30 03:33:03;;;;;;;2.30;2.10;;;;;;;19.42;100.00;99905.38;5040627;28;20179;-78
2023/07/30 03:35:31;;;;;;;2.50;2.08;;;;;;;19.46;100.00;99926.44;5047848;28;20153;-78
2023/07/30 03:38:00;;;;;;;2.60;2.03;;;;;;;19.24;100.00;99895.31;5057259;28;20071;-78
2023/07/30 03:40:30;;;;;;;4.20;2.10;;;;;;;19.27;100.00;99918.34;5040669;28;20132;-77
2023/07/30 03:42:58;;;;;;;2.95;2.00;;;;;;;19.18;100.00;99914.69;5049771;28;20071;-78
2023/07/30 03:45:25;;;;;;;3.40;2.20;;;;;;;19.08;100.00;99900.38;5043516;28;20137;-79
2023/07/30 03:47:54;;;;;;;3.42;1.77;;;;;;;19.16;100.00;99908.59;5056964;28;20079;-79
2023/07/30 03:50:22;;;;;;;3.42;2.10;;;;;;;19.20;100.00;99917.22;5033246;28;20122;-78
2023/07/30 03:52:50;;;;;;;2.35;2.10;;;;;;;19.06;100.00;99915.75;5052402;28;20452;-77
2023/07/30 03:55:20;;;;;;;2.35;1.90;;;;;;;18.92;100.00;99911.63;5027235;28;20045;-78
2023/07/30 03:57:48;;;;;;;3.33;2.47;;;;;;;18.86;100.00;99914.03;5049148;28;20041;-78
2023/07/30 04:00:16;;;;;;;3.72;2.03;;;;;;;18.80;100.00;99915.41;5027877;28;20055;-78
2023/07/30 04:02:44;;;;;;;3.05;2.38;;;;;;;18.73;100.00;99919.59;5044239;28;20041;-77
2023/07/30 04:05:13;;;;;;;2.25;1.85;;;;;;;18.69;100.00;99918.22;5043604;28;20045;-79
2023/07/30 04:07:41;;;;;;;4.90;1.90;;;;;;;18.66;100.00;99920.31;5055259;28;20061;-77
2023/07/30 04:10:10;;;;;;;3.03;2.00;;;;;;;18.63;100.00;99925.94;5045942;28;20572;-79
2023/07/30 04:12:39;;;;;;;2.60;2.00;;;;;;;18.61;100.00;99927.88;5063134;28;20052;-78
2023/07/30 04:15:08;;;;;;;3.13;2.08;;;;;;;18.65;100.00;99932.00;5044473;28;20291;-79
2023/07/30 04:17:41;;;;;;;5.70;2.40;;;;;;;18.56;100.00;99909.50;5057929;28;20045;-78
2023/07/30 04:20:11;;;;;;;3.13;2.08;;;;;;;18.60;100.00;99904.75;5049468;28;20049;-78
2023/07/30 04:22:42;;;;;;;2.58;2.20;;;;;;;18.73;100.00;99921.47;5028656;28;20041;-78
2023/07/30 04:25:11;;;;;;;3.10;2.22;;;;;;;18.96;100.00;99940.88;5029480;28;20134;-78
2023/07/30 04:27:41;;;;;;;4.78;2.70;;;;;;;19.03;100.00;99940.22;5037649;28;20042;-78
2023/07/30 04:30:10;;;;;;;4.57;2.08;;;;;;;19.05;100.00;99946.25;5038744;28;20458;-78
2023/07/30 04:32:38;;;;;;;4.50;2.30;;;;;;;19.09;100.00;99949.53;5050952;28;20056;-77
2023/07/30 04:35:09;;;;;;;3.08;2.00;;;;;;;19.00;100.00;99940.47;5045851;28;20169;-79
2023/07/30 04:37:38;;;;;;;3.55;1.95;;;;;;;19.01;100.00;99944.00;5042291;28;20489;-78
2023/07/30 04:40:09;;;;;;;2.90;1.85;;;;;;;19.03;100.00;99953.63;5055526;28;20105;-77
2023/07/30 04:42:37;;;;;;;3.75;1.95;;;;;;;19.05;100.00;99953.47;5053811;28;20060;-79
2023/07/30 04:45:07;;;;;;;1.85;1.75;;;;;;;18.98;100.00;99945.13;5045580;28;20045;-78
2023/07/30 04:47:38;;;;;;;4.60;2.05;;;;;;;19.01;100.00;99934.13;5045098;28;20091;-78
2023/07/30 04:50:06;;;;;;;4.05;1.88;;;;;;;19.12;100.00;99952.78;5054243;28;20056;-78
2023/07/30 04:52:34;;;;;;;2.90;1.88;;;;;;;19.11;100.00;99951.09;5044774;28;20059;-77
2023/07/30 04:55:03;;;;;;;4.78;2.00;;;;;;;19.17;100.00;99957.75;5047977;28;20056;-79
2023/07/30 04:57:31;;;;;;;2.95;1.63;;;;;;;19.11;100.00;99936.81;5031187;28;20056;-78
2023/07/30 04:59:59;;;;;;;4.65;1.92;;;;;;;19.21;100.00;99949.28;5054859;28;20477;-77
2023/07/30 05:02:32;;;;;;;2.67;1.90;;;;;;;19.27;100.00;99958.63;5040105;28;20068;-79
2023/07/30 05:05:00;;;;;;;3.42;1.73;;;;;;;19.28;100.00;99960.31;5051471;28;20095;-79
2023/07/30 05:07:28;;;;;;;3.47;1.90;;;;;;;19.16;100.00;99940.81;5037805;28;20076;-79
2023/07/30 05:09:59;;;;;;;3.22;1.80;;;;;;;19.28;100.00;99954.94;5054863;28;20528;-77
2023/07/30 05:12:26;;;;;;;5.97;2.10;;;;;;;19.31;100.00;99956.53;5057404;28;20108;-79
2023/07/30 05:14:54;;;;;;;3.70;2.00;;;;;;;19.35;100.00;99949.91;5039927;28;20044;-79
2023/07/30 05:17:22;;;;;;;3.13;1.95;;;;;;;19.30;100.00;99941.41;5026628;28;20068;-79
2023/07/30 05:19:52;;;;;;;3.03;1.80;;;;;;;19.24;100.00;99938.28;5054926;28;20041;-79
2023/07/30 05:22:20;;;;;;;2.35;1.80;;;;;;;19.25;100.00;99948.03;5038824;28;20057;-79
2023/07/30 05:24:48;;;;;;;2.22;1.63;;;;;;;19.32;100.00;99944.78;5050333;28;20044;-80
2023/07/30 05:27:19;;;;;;;2.38;1.65;;;;;;;19.34;100.00;99948.19;5024480;28;20095;-77
2023/07/30 05:29:47;;;;;;;2.55;1.80;;;;;;;19.36;100.00;99943.53;5034843;28;20106;-79
2023/07/30 05:32:16;;;;;;;3.00;1.83;;;;;;;19.39;100.00;99944.09;5060242;28;20520;-79
2023/07/30 05:34:44;;;;;;;2.13;1.50;;;;;;;19.46;100.00;99949.75;5048909;28;20053;-77
2023/07/30 05:37:13;;;;;;;4.60;1.95;;;;;;;19.43;100.00;99932.09;5052864;28;20048;-78
2023/07/30 05:39:41;;;;;;;2.95;1.88;;;;;;;19.47;100.00;99940.72;5052546;28;20412;-78
2023/07/30 05:42:09;;;;;;;3.08;1.58;;;;;;;19.42;100.00;99930.38;5055500;28;20122;-77
2023/07/30 05:44:37;;;;;;;3.42;1.90;;;;;;;19.52;100.00;99935.78;5025961;28;20057;-77
2023/07/30 05:47:05;;;;;;;3.85;1.60;;;;;;;19.59;100.00;99937.78;5052888;28;20052;-77
2023/07/30 05:49:35;;;;;;;4.15;2.00;;;;;;;19.61;100.00;99924.22;5045223;28;20079;-77
2023/07/30 05:52:03;;;;;;;2.47;1.90;;;;;;;19.72;100.00;99929.44;5053074;28;20427;-77
2023/07/30 05:54:34;;;;;;;3.38;2.15;;;;;;;19.79;100.00;99919.84;5043884;28;20056;-78
2023/07/30 05:57:03;;;;;;;3.45;2.38;;;;;;;19.83;100.00;99925.78;5050719;28;20056;-77
2023/07/30 05:59:31;;;;;;;2.92;1.83;;;;;;;19.75;100.00;99920.25;5053911;28;20045;-77
2023/07/30 06:02:04;;;;;;;3.15;1.92;;;;;;;19.98;100.00;99939.63;5057185;28;20065;-77
2023/07/30 06:04:31;;;;;;;3.28;1.70;;;;;;;20.00;100.00;99943.84;5067914;28;20052;-78
2023/07/30 06:07:02;;;;;;;2.83;1.75;;;;;;;19.98;100.00;99931.56;5032455;28;20048;-77
2023/07/30 06:09:31;;;;;;;3.15;1.85;;;;;;;20.06;100.00;99940.59;5044456;28;20669;-76
2023/07/30 06:12:00;;;;;;;3.47;1.40;;;;;;;20.15;100.00;99939.72;5063695;28;20117;-78
2023/07/30 06:14:28;;;;;;;2.40;1.77;;;;;;;20.14;100.00;99931.81;5023052;28;20060;-77
2023/07/30 06:16:56;;;;;;;3.78;2.55;;;;;;;20.29;100.00;99949.22;5036613;28;20056;-79
2023/07/30 06:19:24;;;;;;;4.90;2.15;;;;;;;20.28;100.00;99945.66;5070542;28;20080;-79
2023/07/30 06:21:53;;;;;;;4.60;2.05;;;;;;;20.25;100.00;99955.84;5070252;28;20057;-78
2023/07/30 06:24:22;;;;;;;3.63;2.03;;;;;;;20.22;100.00;99957.00;5048215;28;20140;-78
2023/07/30 06:26:50;;;;;;;4.50;2.10;;;;;;;20.27;100.00;99961.94;5058274;28;20055;-79
2023/07/30 06:29:19;;;;;;;3.67;1.85;;;;;;;20.75;100.00;99959.16;5044966;28;20083;-77
2023/07/30 06:31:53;;;;;;;2.20;1.65;;;;;;;21.29;100.00;99963.72;5042521;28;20056;-78
2023/07/30 06:34:22;;;;;;;2.38;1.55;;;;;;;21.72;100.00;99962.16;5034905;28;20049;-78
2023/07/30 06:36:52;;;;;;;2.93;1.70;;;;;;;21.61;100.00;99946.19;5050310;28;20047;-79
2023/07/30 06:39:20;;;;;;;1.42;1.33;;;;;;;21.55;100.00;99946.84;5047407;28;20056;-78
2023/07/30 06:41:50;;;;;;;1.83;1.35;;;;;;;21.43;100.00;99948.03;5072266;28;20131;-79
2023/07/30 06:44:24;;;;;;;2.65;1.50;;;;;;;21.49;100.00;99966.28;5061058;28;20432;-78
2023/07/30 06:46:52;;;;;;;1.95;1.48;;;;;;;21.47;100.00;99944.03;5060207;28;20121;-79
2023/07/30 06:49:20;;;;;;;1.60;1.40;;;;;;;21.68;100.00;99955.38;5049494;28;20048;-79
2023/07/30 06:51:48;;;;;;;2.55;1.50;;;;;;;21.88;100.00;99974.94;5063094;28;20044;-77
2023/07/30 06:54:16;;;;;;;2.30;1.42;;;;;;;21.86;100.00;99972.41;5049250;28;20053;-78
2023/07/30 06:56:47;;;;;;;2.80;1.40;;;;;;;21.86;100.00;99972.41;5059225;28;20068;-78
2023/07/30 06:59:16;;;;;;;3.13;1.40;;;;;;;21.97;100.00;99979.41;5064384;28;20099;-78
2023/07/30 07:01:45;;;;;;;2.45;1.50;;;;;;;22.00;100.00;99969.19;5067037;28;20052;-77
2023/07/30 07:04:14;;;;;;;2.70;1.40;;;;;;;21.78;100.00;99964.22;5060334;28;20087;-77
2023/07/30 07:06:41;;;;;;;3.17;1.50;;;;;;;21.55;100.00;99965.69;5035519;28;20488;-79
2023/07/30 07:09:09;;;;;;;2.50;1.35;;;;;;;21.46;100.00;99955.81;5062178;28;20045;-77
2023/07/30 07:11:37;;;;;;;1.63;1.40;;;;;;;21.63;100.00;99972.00;5064323;28;20040;-77
2023/07/30 07:14:06;;;;;;;1.30;1.00;;;;;;;21.60;100.00;99939.97;5064584;28;20063;-77
2023/07/30 07:16:34;;;;;;;1.85;1.27;;;;;;;21.89;100.00;99971.22;5052341;28;20048;-75
2023/07/30 07:19:03;;;;;;;1.50;1.40;;;;;;;21.93;100.00;100002.28;5054934;28;20041;-77
2023/07/30 07:21:31;;;;;;;1.55;1.30;;;;;;;21.51;100.00;99988.53;5062729;28;20045;-77
2023/07/30 07:23:59;;;;;;;2.10;1.30;;;;;;;21.10;100.00;100012.25;5058921;28;20531;-76
2023/07/30 07:26:27;;;;;;;4.38;1.48;;;;;;;20.93;100.00;100010.34;5044741;28;20049;-78
2023/07/30 07:28:57;;;;;;;2.95;1.40;;;;;;;20.79;100.00;100017.03;5054339;28;20511;-77
2023/07/30 07:31:25;;;;;;;3.50;1.42;;;;;;;20.65;100.00;100020.19;5063143;28;20060;-77
2023/07/30 07:33:53;;;;;;;1.70;1.20;;;;;;;20.61;100.00;100026.88;5051648;28;20067;-78
2023/07/30 07:36:25;;;;;;;3.60;1.25;;;;;;;20.37;100.00;99994.22;5056127;28;20047;-78
2023/07/30 07:38:54;;;;;;;3.85;1.80;;;;;;;20.50;100.00;100016.25;5052135;28;20052;-77
2023/07/30 07:41:25;;;;;;;2.25;1.30;;;;;;;20.55;100.00;100022.91;5054924;28;20049;-76
2023/07/30 07:43:54;;;;;;;3.33;1.52;;;;;;;20.49;100.00;99988.53;5047675;28;20056;-78
2023/07/30 07:46:22;;;;;;;4.63;1.30;;;;;;;20.79;100.00;100014.34;5050550;28;20049;-78
2023/07/30 07:48:50;;;;;;;1.73;1.30;;;;;;;20.95;100.00;100011.03;5030086;28;20047;-78
2023/07/30 07:51:19;;;;;;;2.63;1.50;;;;;;;21.16;100.00;100002.72;5052036;28;20071;-78
2023/07/30 07:53:49;;;;;;;2.47;1.40;;;;;;;21.32;100.00;99984.13;5052197;28;20056;-78
2023/07/30 07:56:18;;;;;;;2.20;1.38;;;;;;;21.60;100.00;99987.63;5048483;28;20420;-77
2023/07/30 07:58:46;;;;;;;2.53;1.60;;;;;;;21.76;100.00;99976.16;5039689;28;20132;-77
2023/07/30 08:01:14;;;;;;;3.22;1.42;;;;;;;21.90;100.00;99978.31;5037457;28;20049;-76
2023/07/30 08:03:42;;;;;;;1.55;1.05;;;;;;;21.84;100.00;99979.78;5063091;28;20037;-76
2023/07/30 08:06:10;;;;;;;3.60;1.50;;;;;;;21.87;100.00;99981.34;5057841;28;20041;-77
2023/07/30 08:08:38;;;;;;;2.00;1.20;;;;;;;22.02;100.00;99972.59;5048799;28;20044;-79
2023/07/30 08:11:08;;;;;;;4.65;1.75;;;;;;;22.26;100.00;99966.53;5055635;28;20060;-76
2023/07/30 08:13:37;;;;;;;2.17;1.48;;;;;;;22.46;98.76;99974.44;5058773;28;20055;-77
2023/07/30 08:16:05;;;;;;;3.80;1.40;;;;;;;22.42;98.86;99971.19;5049475;28;20111;-78
2023/07/30 08:18:35;;;;;;;2.65;1.33;;;;;;;22.23;100.00;99982.16;5045820;28;20079;-78
2023/07/30 08:21:04;;;;;;;1.75;1.38;;;;;;;21.99;100.00;99989.06;5057182;28;20052;-77
2023/07/30 08:23:32;;;;;;;2.80;1.20;;;;;;;21.92;100.00;99981.69;5063167;28;20052;-78
2023/07/30 08:26:00;;;;;;;1.55;1.40;;;;;;;22.07;100.00;99973.94;5050438;28;20045;-79
2023/07/30 08:28:30;;;;;;;2.33;1.40;;;;;;;22.41;100.00;99958.69;5048874;28;20143;-78
2023/07/30 08:31:06;;;;;;;4.03;1.60;;;;;;;23.00;100.00;99978.63;5048668;28;20059;-79
2023/07/30 08:33:35;;;;;;;2.47;1.70;;;;;;;23.35;98.42;99967.63;5075626;28;20100;-78
2023/07/30 08:36:03;;;;;;;3.78;1.50;;;;;;;23.21;92.21;99922.34;5068507;28;20040;-77
2023/07/30 08:38:33;;;;;;;;;;;;;;;23.38;95.98;99958.38;5064011;28;20068;-77
2023/07/30 08:41:02;;;;;;;2.13;1.60;;;;;;;23.13;98.00;99956.59;5063074;28;19932;-77
2023/07/30 08:43:36;;;;;;;2.78;1.50;;;;;;;23.02;95.72;99942.38;5051858;28;20076;-77
2023/07/30 08:46:05;;;;;;;2.70;1.40;;;;;;;23.05;92.62;99927.69;5026991;28;20045;-77
2023/07/30 08:48:33;;;;;;;2.55;1.20;;;;;;;23.35;92.36;99953.28;5023359;28;20055;-78
2023/07/30 08:51:03;;;;;;;1.83;1.10;;;;;;;23.63;87.61;99948.47;5049734;28;20056;-78
2023/07/30 08:53:31;;;;;;;1.53;1.40;;;;;;;23.69;86.55;99959.47;5052807;28;20057;-77
2023/07/30 08:56:01;;;;;;;1.75;1.30;;;;;;;23.43;89.12;99954.16;5050369;28;20582;-77
2023/07/30 08:58:29;;;;;;;3.78;1.13;;;;;;;23.09;91.33;99962.31;5038720;28;20122;-77
2023/07/30 09:01:01;;;;;;;1.75;1.35;;;;;;;22.72;95.76;99927.50;5030082;28;20044;-78
2023/07/30 09:03:33;;;;;;;2.22;1.23;;;;;;;22.85;95.06;99939.75;5060990;28;20054;-78
2023/07/30 09:06:01;;;;;;;2.30;1.40;;;;;;;22.74;97.21;99941.69;5050314;28;20033;-78
2023/07/30 09:08:31;;;;;;;1.30;1.20;;;;;;;23.04;98.09;99953.00;5041930;28;20045;-78
2023/07/30 09:11:10;;;;;;;1.63;1.30;;;;;;;23.20;97.24;99946.81;5051871;28;20076;-77
2023/07/30 09:13:39;;;;;;;2.00;1.65;;;;;;;23.30;95.95;99958.31;5036087;28;20049;-78
2023/07/30 09:16:25;;;;;;;1.98;1.67;;;;;;;23.00;98.62;99951.63;5054739;28;20048;-78
2023/07/30 09:18:54;;;;;;;3.78;1.70;;;;;;;23.17;97.52;99931.78;5030711;28;20048;-78
2023/07/30 09:21:31;;;;;;;3.90;1.90;;;;;;;23.59;94.74;99944.44;5047043;28;20485;-77
2023/07/30 09:24:05;;;;;;;4.78;1.77;;;;;;;23.63;92.89;99943.06;5065609;28;20506;-78
2023/07/30 09:26:44;;;;;;;3.15;1.88;;;;;;;23.29;95.96;99935.03;5053405;28;20045;-77
2023/07/30 09:29:13;;;;;;;3.08;1.90;;;;;;;23.14;100.00;99928.59;5019900;28;20137;-77
2023/07/30 09:31:47;;;;;;;2.40;1.67;;;;;;;22.74;100.00;99946.25;5057271;28;20458;-78
2023/07/30 09:34:17;;;;;;;6.28;2.72;;;;;;;22.13;100.00;99941.81;5053787;28;20139;-78
2023/07/30 09:36:47;;;;;;;2.25;2.05;;;;;;;21.96;100.00;99939.97;5038533;28;20123;-80
2023/07/30 09:39:23;;;;;;;7.00;2.92;;;;;;;21.47;100.00;99950.28;5064946;28;20356;-78
2023/07/30 09:41:51;;;;;;;4.57;3.28;;;;;;;20.44;100.00;99944.25;5064225;28;20047;-78
2023/07/30 09:44:22;;;;;;;3.63;3.00;;;;;;;19.93;100.00;99938.22;5067449;28;20048;-80
2023/07/30 09:46:51;;;;;;;4.40;2.75;;;;;;;19.62;100.00;99904.44;5057859;28;20045;-79
2023/07/30 09:49:19;;;;;;;1.77;1.67;;;;;;;19.55;100.00;99905.97;5067571;28;20060;-79
2023/07/30 09:51:50;;;;;;;4.85;1.88;;;;;;;18.70;100.00;99970.88;5040029;28;20049;-79
2023/07/30 09:54:19;;;;;;;6.18;2.40;;;;;;;18.35;100.00;99981.91;5068357;28;20040;-80
2023/07/30 09:56:48;;;;;;;3.75;1.27;;;;;;;17.91;100.00;99976.81;5063716;28;20072;-79
2023/07/30 09:59:16;;;;;;;2.63;1.25;;;;;;;17.44;100.00;99986.91;5062581;28;20049;-81
2023/07/30 10:01:47;;;;;;;4.00;1.50;;;;;;;17.23;100.00;100002.03;5065424;28;20605;-80
2023/07/30 10:04:21;;;;;;;4.60;1.58;;;;;;;17.22;100.00;100040.47;5053510;28;20041;-84
2023/07/30 10:06:57;;;;;;;2.25;1.50;;;;;;;17.23;100.00;100056.41;5070831;28;20422;-85
2023/07/30 10:09:31;;;;;;;4.45;1.58;;;;;;;17.26;100.00;100077.56;5078793;28;20036;-82
2023/07/30 10:12:03;;;;;;;1.98;1.10;;;;;;;17.24;100.00;100089.38;5070294;28;20049;-80
2023/07/30 10:14:33;;;;;;;3.22;0.95;;;;;;;17.15;100.00;100075.75;5066578;28;20049;-81
2023/07/30 10:17:03;;;;;;;2.88;0.93;;;;;;;17.22;100.00;100100.19;5061432;28;20041;-81
2023/07/30 10:19:34;;;;;;;1.08;0.80;;;;;;;17.09;100.00;100086.94;5064713;28;20041;-79
2023/07/30 10:22:24;;;;;;;2.13;1.10;;;;;;;17.17;100.00;100099.69;5052386;28;20030;-79
2023/07/30 10:25:00;;;;;;;1.85;0.95;;;;;;;17.28;100.00;100096.19;5065750;28;20048;-79
2023/07/30 10:27:36;;;;;;;3.28;1.02;;;;;;;17.44;100.00;100097.53;5066859;28;20321;-80
2023/07/30 10:30:12;;;;;;;1.35;1.13;;;;;;;17.59;100.00;100105.28;5059641;28;20045;-80
2023/07/30 10:32:42;;;;;;;1.52;1.15;;;;;;;17.83;100.00;100109.53;5057806;28;20044;-79
2023/07/30 10:35:38;;;;;;;1.33;1.00;;;;;;;17.96;100.00;100109.38;5070527;28;20090;-82
2023/07/30 10:38:17;;;;;;;1.65;0.80;;;;;;;18.10;100.00;100076.94;5073188;28;20131;-80
2023/07/30 10:41:06;;;;;;;1.70;0.90;;;;;;;18.59;100.00;100115.75;5059663;28;20689;-81
2023/07/30 10:43:39;;;;;;;1.77;0.90;;;;;;;18.70;100.00;100125.56;5048936;28;20147;-80
2023/07/30 10:46:08;;;;;;;2.13;0.90;;;;;;;18.54;100.00;100100.03;5072848;28;20080;-80
2023/07/30 10:48:37;;;;;;;6.38;1.27;;;;;;;18.56;100.00;100124.03;5047319;28;20053;-81
2023/07/30 10:51:10;;;;;;;2.42;0.85;;;;;;;18.33;100.00;100123.28;5055609;28;20053;-80
2023/07/30 10:53:39;;;;;;;2.17;0.95;;;;;;;18.12;100.00;100123.22;5051225;28;20049;-80
2023/07/30 10:56:08;;;;;;;2.33;0.70;;;;;;;18.02;100.00;100126.78;5059925;28;20397;-80
2023/07/30 10:58:37;;;;;;;1.67;0.88;;;;;;;18.02;100.00;100134.81;5030643;28;20045;-79
2023/07/30 11:01:08;;;;;;;6.63;1.30;;;;;;;18.16;100.00;100131.84;5046287;28;20040;-80
2023/07/30 11:03:37;;;;;;;4.10;1.60;;;;;;;18.29;100.00;100132.53;5071526;28;20043;-80
2023/07/30 11:06:09;;;;;;;;;;;;;;;18.49;100.00;100145.13;5070691;28;20052;-78
2023/07/30 11:08:40;;;;;;;2.22;1.08;;;;;;;18.65;100.00;100133.16;5059875;28;20354;-78
2023/07/30 11:11:11;;;;;;;2.28;1.10;;;;;;;18.47;100.00;100104.19;5062401;28;20132;-78
2023/07/30 11:13:40;;;;;;;2.55;1.13;;;;;;;18.65;100.00;100150.09;5054353;28;20110;-79
2023/07/30 11:16:13;;;;;;;3.67;1.17;;;;;;;18.60;100.00;100136.22;5074582;28;20045;-78
2023/07/30 11:18:43;;;;;;;4.10;1.10;;;;;;;18.79;100.00;100156.97;5061830;28;20049;-81
2023/07/30 11:21:16;;;;;;;3.17;1.17;;;;;;;18.99;100.00;100131.97;5059729;28;20049;-79
2023/07/30 11:24:02;;;;;;;4.25;1.20;;;;;;;18.97;100.00;100112.47;5057060;28;20051;-82
2023/07/30 11:26:37;;;;;;;3.75;1.42;;;;;;;19.30;100.00;100154.34;5065008;28;20041;-80
2023/07/30 11:29:21;;;;;;;4.70;1.58;;;;;;;19.37;100.00;100134.00;5054990;28;20046;-79
2023/07/30 11:31:53;;;;;;;2.08;1.17;;;;;;;19.77;100.00;100158.25;5057972;28;20067;-81
2023/07/30 11:34:24;;;;;;;6.20;1.38;;;;;;;19.73;100.00;100139.84;5068913;28;20052;-81
2023/07/30 11:37:02;;;;;;;3.95;1.30;;;;;;;19.72;100.00;100154.25;5079960;28;20135;-81
2023/07/30 11:42:19;;;;;;;3.80;1.30;;;;;;;19.17;100.00;100162.63;5066639;28;20049;-80